createdAt,value
2019-03-27T00:00:52.004Z,9.80
2019-03-27T00:03:23.810Z,10.50
2019-03-27T00:05:55.099Z,9.87
2019-03-27T00:08:26.411Z,11.07
2019-03-27T00:10:57.751Z,9.73
2019-03-27T00:13:29.046Z,10.43
2019-03-27T00:16:00.429Z,10.17
2019-03-27T00:18:31.728Z,10.87
2019-03-27T00:21:02.971Z,11.57
2019-03-27T00:23:34.457Z,11.60
2019-03-27T00:26:05.839Z,11.20
2019-03-27T00:28:37.208Z,10.93
2019-03-27T00:31:11.635Z,10.40
2019-03-27T00:33:41.438Z,11.60
2019-03-27T00:36:12.779Z,11.57
2019-03-27T00:38:44.181Z,12.10
2019-03-27T00:41:15.413Z,11.63
2019-03-27T00:43:46.769Z,11.00
2019-03-27T00:46:18.072Z,10.43
2019-03-27T00:48:49.431Z,11.17
2019-03-27T00:51:20.676Z,10.47
2019-03-27T00:53:51.989Z,11.33
2019-03-27T00:56:23.292Z,10.90
2019-03-27T00:58:54.748Z,11.10
2019-03-27T01:01:26.120Z,10.43
2019-03-27T01:03:57.364Z,10.70
2019-03-27T01:06:28.728Z,11.13
2019-03-27T01:09:00.052Z,11.63
2019-03-27T01:11:31.383Z,10.03
2019-03-27T01:14:02.625Z,10.97
2019-03-27T01:16:33.910Z,11.40
2019-03-27T01:19:05.286Z,11.23
2019-03-27T01:21:36.668Z,11.80
2019-03-27T01:24:09.097Z,12.17
2019-03-27T01:26:40.421Z,11.00
2019-03-27T01:29:11.730Z,12.37
2019-03-27T01:31:43.043Z,11.17
2019-03-27T01:34:14.286Z,11.73
2019-03-27T01:36:45.573Z,12.90
2019-03-27T01:39:16.813Z,11.60
2019-03-27T01:41:48.127Z,11.73
2019-03-27T01:44:19.372Z,11.20
2019-03-27T01:46:50.662Z,11.47
2019-03-27T01:49:21.955Z,11.60
2019-03-27T01:51:53.422Z,11.23
2019-03-27T01:54:24.662Z,12.00
2019-03-27T01:56:56.189Z,10.77
2019-03-27T01:59:27.436Z,10.83
2019-03-27T02:01:58.861Z,11.50
2019-03-27T02:04:30.143Z,10.63
2019-03-27T02:07:01.641Z,11.03
2019-03-27T02:09:33.084Z,12.17
2019-03-27T02:12:04.744Z,10.47
2019-03-27T02:14:36.193Z,11.97
2019-03-27T02:17:07.617Z,11.67
2019-03-27T02:19:38.936Z,10.20
2019-03-27T02:22:12.524Z,10.93
2019-03-27T02:24:43.958Z,10.63
2019-03-27T02:27:15.557Z,10.97
2019-03-27T02:29:46.864Z,11.13
2019-03-27T02:32:20.660Z,11.43
2019-03-27T02:34:51.049Z,11.70
2019-03-27T02:37:22.414Z,11.60
2019-03-27T02:39:53.758Z,10.70
2019-03-27T02:42:25.045Z,11.70
2019-03-27T02:44:56.421Z,11.83
2019-03-27T02:47:27.658Z,11.53
2019-03-27T02:49:58.891Z,11.73
2019-03-27T02:52:30.304Z,12.20
2019-03-27T02:55:01.549Z,11.63
2019-03-27T02:57:32.844Z,11.80
2019-03-27T03:00:06.070Z,12.47
2019-03-27T03:02:37.450Z,11.80
2019-03-27T03:05:11.295Z,11.70
2019-03-27T03:07:43.175Z,11.63
2019-03-27T03:10:16.203Z,11.27
2019-03-27T03:12:47.520Z,11.63
2019-03-27T03:15:23.144Z,10.50
2019-03-27T03:17:54.410Z,11.07
2019-03-27T03:20:26.877Z,11.43
2019-03-27T03:22:58.197Z,12.07
2019-03-27T03:25:29.617Z,11.07
2019-03-27T03:28:00.844Z,11.70
2019-03-27T03:30:32.280Z,10.83
2019-03-27T03:33:03.586Z,11.90
2019-03-27T03:35:34.973Z,11.00
2019-03-27T03:38:07.283Z,11.23
2019-03-27T03:40:38.649Z,11.30
2019-03-27T03:43:11.901Z,11.83
2019-03-27T03:45:43.212Z,11.57
2019-03-27T03:48:14.628Z,11.20
2019-03-27T03:50:55.155Z,12.17
2019-03-27T03:53:27.251Z,11.50
2019-03-27T03:56:00.311Z,11.73
2019-03-27T03:58:34.065Z,10.50
2019-03-27T04:01:05.440Z,9.80
2019-03-27T04:03:37.855Z,10.47
2019-03-27T04:06:09.160Z,10.27
2019-03-27T04:08:40.493Z,10.37
2019-03-27T04:11:11.869Z,11.30
2019-03-27T04:13:43.137Z,10.50
2019-03-27T04:16:14.433Z,10.37
2019-03-27T04:18:45.790Z,10.93
2019-03-27T04:21:17.015Z,11.83
2019-03-27T04:23:48.446Z,12.37
2019-03-27T04:26:20.822Z,10.40
2019-03-27T04:28:52.158Z,10.20
2019-03-27T04:31:23.396Z,11.53
2019-03-27T04:33:54.694Z,11.27
2019-03-27T04:36:25.925Z,11.90
2019-03-27T04:38:57.617Z,10.73
2019-03-27T04:41:28.914Z,9.53
2019-03-27T04:44:00.192Z,10.70
2019-03-27T04:46:31.439Z,10.87
2019-03-27T04:49:07.354Z,10.67
2019-03-27T04:51:35.699Z,11.33
2019-03-27T04:54:12.595Z,11.57
2019-03-27T04:56:43.958Z,12.17
2019-03-27T04:59:15.579Z,11.57
2019-03-27T05:01:46.810Z,11.87
2019-03-27T05:04:18.332Z,12.67
2019-03-27T05:06:49.698Z,12.23
2019-03-27T05:09:21.329Z,12.90
2019-03-27T05:11:52.687Z,11.40
2019-03-27T05:14:24.102Z,11.90
2019-03-27T05:16:55.341Z,12.03
2019-03-27T05:19:26.631Z,11.97
2019-03-27T05:21:57.980Z,12.10
2019-03-27T05:24:29.283Z,13.00
2019-03-27T05:27:00.541Z,11.80
2019-03-27T05:29:31.841Z,12.67
2019-03-27T05:32:03.083Z,13.27
2019-03-27T05:34:34.468Z,14.17
2019-03-27T05:37:05.712Z,14.97
2019-03-27T05:39:37.018Z,14.23
2019-03-27T05:42:08.325Z,14.30
2019-03-27T05:44:39.715Z,14.47
2019-03-27T05:47:11.094Z,13.93
2019-03-27T05:49:42.383Z,13.87
2019-03-27T05:52:13.603Z,13.43
2019-03-27T05:54:44.991Z,13.53
2019-03-27T05:57:16.231Z,12.67
2019-03-27T05:59:47.579Z,13.80
2019-03-27T06:02:18.912Z,13.97
2019-03-27T06:04:53.884Z,14.10
2019-03-27T06:07:25.976Z,15.00
2019-03-27T06:09:57.749Z,13.80
2019-03-27T06:12:32.515Z,14.13
2019-03-27T06:15:06.881Z,15.57
2019-03-27T06:17:38.192Z,15.03
2019-03-27T06:20:09.706Z,13.93
2019-03-27T06:22:40.939Z,13.73
2019-03-27T06:25:12.370Z,13.53
2019-03-27T06:27:43.621Z,14.20
2019-03-27T06:30:16.573Z,14.73
2019-03-27T06:32:47.864Z,12.83
2019-03-27T06:35:20.229Z,14.63
2019-03-27T06:37:51.770Z,14.60
2019-03-27T06:40:23.460Z,15.00
2019-03-27T06:42:54.786Z,14.10
2019-03-27T06:45:26.139Z,13.27
2019-03-27T06:47:57.519Z,15.63
2019-03-27T06:50:28.871Z,14.07
2019-03-27T06:53:00.166Z,15.05
2019-03-27T06:55:32.657Z,15.70
2019-03-27T06:58:03.952Z,15.37
2019-03-27T07:00:37.045Z,14.47
2019-03-27T07:03:09.047Z,13.80
2019-03-27T07:05:41.194Z,14.67
2019-03-27T07:08:12.483Z,15.10
2019-03-27T07:10:43.817Z,15.33
2019-03-27T07:13:15.141Z,15.83
2019-03-27T07:15:46.427Z,15.70
2019-03-27T07:18:17.729Z,16.13
2019-03-27T07:20:49.081Z,17.87
2019-03-27T07:23:20.387Z,17.63
2019-03-27T07:25:51.843Z,18.48
2019-03-27T07:28:23.215Z,18.87
2019-03-27T07:30:54.496Z,18.25
2019-03-27T07:33:25.768Z,18.40
2019-03-27T07:35:57.028Z,19.45
2019-03-27T07:38:28.323Z,18.37
2019-03-27T07:41:00.699Z,19.45
2019-03-27T07:43:32.011Z,19.27
2019-03-27T07:46:03.352Z,17.73
2019-03-27T07:48:34.584Z,19.55
2019-03-27T07:51:05.953Z,20.05
2019-03-27T07:53:37.255Z,18.52
2019-03-27T07:56:08.724Z,17.62
2019-03-27T07:58:40.090Z,18.57
2019-03-27T08:01:11.393Z,18.40
2019-03-27T08:03:42.643Z,17.48
2019-03-27T08:06:14.047Z,15.60
2019-03-27T08:08:45.279Z,14.18
2019-03-27T08:11:16.582Z,14.45
2019-03-27T08:13:47.842Z,14.15
2019-03-27T08:16:19.166Z,14.85
2019-03-27T08:18:50.439Z,14.03
2019-03-27T08:21:21.761Z,12.23
2019-03-27T08:23:54.681Z,12.37
2019-03-27T08:26:26.112Z,12.75
2019-03-27T08:28:57.339Z,9.88
2019-03-27T08:31:28.700Z,11.80
2019-03-27T08:33:59.969Z,12.75
2019-03-27T08:36:31.266Z,9.63
2019-03-27T08:39:02.497Z,12.20
2019-03-27T08:41:35.368Z,11.38
2019-03-27T08:44:06.740Z,12.37
2019-03-27T08:46:39.717Z,11.45
2019-03-27T08:49:21.338Z,9.85
2019-03-27T08:51:44.180Z,11.05
2019-03-27T08:54:15.541Z,10.93
2019-03-27T08:56:46.843Z,9.75
2019-03-27T08:59:18.072Z,12.10
2019-03-27T09:01:49.380Z,12.03
2019-03-27T09:04:20.766Z,12.10
2019-03-27T09:06:53.125Z,10.63
2019-03-27T09:09:24.424Z,11.20
2019-03-27T09:11:55.928Z,9.73
2019-03-27T09:14:27.205Z,10.00
2019-03-27T09:16:58.623Z,8.53
2019-03-27T09:19:35.461Z,9.05
2019-03-27T09:22:03.045Z,9.20
2019-03-27T09:24:34.280Z,9.63
2019-03-27T09:27:05.727Z,8.85
2019-03-27T09:29:36.967Z,9.60
2019-03-27T09:32:08.258Z,9.90
2019-03-27T09:34:39.573Z,12.18
2019-03-27T09:37:10.971Z,10.82
2019-03-27T09:39:42.359Z,11.00
2019-03-27T09:42:13.824Z,10.63
2019-03-27T09:44:46.213Z,10.60
2019-03-27T09:47:17.511Z,11.68
2019-03-27T09:49:50.070Z,10.95
2019-03-27T09:52:21.558Z,11.22
2019-03-27T09:54:52.809Z,11.63
2019-03-27T09:57:24.144Z,10.63
2019-03-27T09:59:55.396Z,9.63
2019-03-27T10:02:26.688Z,10.85
2019-03-27T10:04:58.010Z,10.95
2019-03-27T10:07:30.180Z,11.33
2019-03-27T10:10:02.493Z,10.13
2019-03-27T10:12:33.940Z,10.32
2019-03-27T10:15:11.661Z,11.08
2019-03-27T10:17:43.053Z,10.65
2019-03-27T10:20:14.438Z,10.53
2019-03-27T10:22:45.728Z,10.72
2019-03-27T10:25:17.125Z,10.58
2019-03-27T10:27:48.432Z,10.10
2019-03-27T10:30:19.824Z,11.10
2019-03-27T10:32:51.142Z,10.35
2019-03-27T10:35:22.464Z,10.45
2019-03-27T10:37:53.854Z,10.98
2019-03-27T10:40:25.169Z,10.82
2019-03-27T10:42:56.551Z,10.72
2019-03-27T10:45:27.814Z,10.10
2019-03-27T10:47:59.130Z,9.70
2019-03-27T10:50:30.377Z,8.85
2019-03-27T10:53:01.774Z,9.00
2019-03-27T10:55:34.566Z,9.18
2019-03-27T10:58:07.355Z,8.48
2019-03-27T11:00:40.401Z,8.00
2019-03-27T11:03:12.114Z,7.55
2019-03-27T11:05:43.540Z,9.20
2019-03-27T11:08:14.901Z,7.62
2019-03-27T11:10:46.340Z,7.20
2019-03-27T11:13:17.648Z,7.42
2019-03-27T11:15:48.962Z,6.90
2019-03-27T11:18:20.271Z,6.83
2019-03-27T11:20:51.579Z,7.62
2019-03-27T11:23:23.010Z,9.43
2019-03-27T11:25:55.851Z,6.28
2019-03-27T11:28:27.201Z,5.40
2019-03-27T11:30:58.437Z,6.62
2019-03-27T11:33:29.802Z,5.85
2019-03-27T11:36:01.111Z,5.85
2019-03-27T11:38:32.426Z,5.75
2019-03-27T11:41:03.897Z,6.03
2019-03-27T11:43:35.273Z,5.67
2019-03-27T11:46:06.717Z,6.60
2019-03-27T11:48:38.137Z,6.53
2019-03-27T11:51:09.380Z,6.42
2019-03-27T11:53:40.666Z,5.10
2019-03-27T11:56:11.936Z,4.37
2019-03-27T11:58:43.350Z,4.12
2019-03-27T12:01:14.652Z,3.72
2019-03-27T12:03:46.012Z,4.25
2019-03-27T12:06:17.312Z,3.80
2019-03-27T12:08:51.005Z,3.55
2019-03-27T12:11:23.566Z,4.25
2019-03-27T12:13:54.940Z,4.28
2019-03-27T12:16:26.180Z,4.67
2019-03-27T12:18:57.464Z,3.60
2019-03-27T12:21:28.746Z,3.42
2019-03-27T12:24:00.040Z,6.55
2019-03-27T12:26:31.344Z,3.15
2019-03-27T12:29:02.655Z,4.45
2019-03-27T12:31:33.887Z,3.80
2019-03-27T12:34:05.238Z,3.83
2019-03-27T12:36:36.613Z,9.68
2019-03-27T12:39:08.610Z,3.90
2019-03-27T12:41:39.914Z,3.87
2019-03-27T12:44:11.353Z,5.20
2019-03-27T12:46:42.618Z,6.70
2019-03-27T12:49:14.041Z,3.80
2019-03-27T12:51:45.349Z,3.72
2019-03-27T12:54:16.724Z,3.50
2019-03-27T12:56:48.114Z,4.20
2019-03-27T12:59:19.428Z,3.95
2019-03-27T13:01:50.730Z,3.62
2019-03-27T13:04:22.086Z,3.62
2019-03-27T13:06:53.386Z,3.22
2019-03-27T13:09:25.737Z,3.58
2019-03-27T13:11:56.962Z,4.15
2019-03-27T13:14:28.279Z,3.58
2019-03-27T13:16:59.581Z,3.45
2019-03-27T13:19:30.875Z,3.60
2019-03-27T13:22:02.121Z,3.33
2019-03-27T13:24:33.398Z,3.83
2019-03-27T13:27:05.569Z,3.85
2019-03-27T13:29:36.935Z,3.33
2019-03-27T13:32:08.242Z,3.22
2019-03-27T13:34:40.603Z,3.25
2019-03-27T13:37:11.840Z,3.40
2019-03-27T13:39:43.134Z,3.62
2019-03-27T13:42:14.362Z,3.60
2019-03-27T13:44:45.672Z,4.37
2019-03-27T13:47:17.356Z,3.90
2019-03-27T13:49:48.780Z,3.70
2019-03-27T13:52:20.173Z,4.60
2019-03-27T13:54:51.531Z,4.60
2019-03-27T13:57:22.832Z,4.55
2019-03-27T13:59:54.274Z,4.08
2019-03-27T14:02:25.611Z,4.53
2019-03-27T14:04:57.523Z,5.00
2019-03-27T14:07:28.754Z,4.75
2019-03-27T14:10:08.013Z,4.70
2019-03-27T14:12:39.740Z,5.05
2019-03-27T14:15:14.019Z,5.92
2019-03-27T14:17:45.252Z,5.90
2019-03-27T14:20:17.095Z,5.50
2019-03-27T14:22:48.438Z,6.15
2019-03-27T14:25:22.132Z,5.42
2019-03-27T14:27:56.432Z,5.97
2019-03-27T14:30:49.067Z,5.90
2019-03-27T14:33:21.113Z,5.25
2019-03-27T14:35:52.608Z,5.20
2019-03-27T14:38:24.699Z,5.33
2019-03-27T14:40:56.003Z,6.05
2019-03-27T14:43:27.425Z,4.83
2019-03-27T14:46:00.216Z,5.35
2019-03-27T14:48:31.603Z,5.47
2019-03-27T14:51:04.065Z,4.65
2019-03-27T14:53:35.436Z,5.70
2019-03-27T14:56:06.865Z,5.05
2019-03-27T14:58:38.122Z,4.75
2019-03-27T15:01:09.591Z,5.17
2019-03-27T15:03:42.550Z,4.60
2019-03-27T15:06:13.808Z,4.83
2019-03-27T15:08:45.072Z,4.80
2019-03-27T15:11:17.378Z,4.97
2019-03-27T15:13:48.627Z,4.53
2019-03-27T15:16:19.996Z,4.50
2019-03-27T15:18:52.714Z,5.28
2019-03-27T15:21:24.302Z,5.03
2019-03-27T15:23:55.639Z,5.15
2019-03-27T15:26:26.929Z,4.80
2019-03-27T15:28:58.286Z,4.50
2019-03-27T15:31:29.792Z,5.20
2019-03-27T15:34:01.181Z,5.80
2019-03-27T15:36:32.487Z,5.08
2019-03-27T15:39:05.741Z,5.28
2019-03-27T15:41:37.097Z,5.80
2019-03-27T15:44:08.476Z,5.30
2019-03-27T15:46:41.387Z,5.35
2019-03-27T15:49:12.700Z,5.33
2019-03-27T15:51:44.064Z,5.10
2019-03-27T15:54:16.210Z,5.50
2019-03-27T15:56:47.665Z,4.95
2019-03-27T15:59:18.900Z,5.12
2019-03-27T16:01:50.290Z,5.60
2019-03-27T16:04:21.512Z,4.70
2019-03-27T16:06:52.842Z,6.20
2019-03-27T16:09:24.182Z,5.70
2019-03-27T16:11:56.406Z,4.55
2019-03-27T16:14:27.780Z,5.70
2019-03-27T16:17:12.775Z,4.90
2019-03-27T16:19:32.349Z,4.30
2019-03-27T16:22:03.869Z,5.00
2019-03-27T16:24:35.365Z,6.47
2019-03-27T16:27:06.728Z,5.70
2019-03-27T16:29:40.882Z,7.05
2019-03-27T16:32:12.374Z,7.95
2019-03-27T16:34:43.678Z,5.83
2019-03-27T16:37:15.632Z,6.25
2019-03-27T16:39:46.858Z,5.05
2019-03-27T16:42:18.212Z,5.10
2019-03-27T16:44:50.587Z,5.00
2019-03-27T16:47:22.091Z,6.22
2019-03-27T16:49:53.427Z,5.72
2019-03-27T16:52:24.889Z,5.33
2019-03-27T16:54:56.158Z,5.33
2019-03-27T16:57:27.571Z,5.62
2019-03-27T16:59:59.057Z,5.40
2019-03-27T17:02:30.488Z,5.72
2019-03-27T17:05:01.793Z,5.55
2019-03-27T17:07:33.244Z,6.85
2019-03-27T17:10:05.889Z,6.92
2019-03-27T17:12:52.915Z,5.42
2019-03-27T17:15:24.259Z,6.30
2019-03-27T17:17:55.805Z,5.33
2019-03-27T17:20:27.110Z,5.85
2019-03-27T17:22:58.484Z,6.50
2019-03-27T17:25:29.833Z,6.08
2019-03-27T17:28:01.146Z,6.47
2019-03-27T17:30:32.465Z,6.97
2019-03-27T17:33:03.892Z,7.15
2019-03-27T17:35:35.252Z,7.55
2019-03-27T17:38:10.821Z,6.65
2019-03-27T17:40:40.626Z,7.17
2019-03-27T17:43:12.022Z,6.45
2019-03-27T17:45:44.302Z,7.12
2019-03-27T17:48:17.372Z,6.60
2019-03-27T17:50:48.723Z,7.12
2019-03-27T17:53:30.974Z,7.50
2019-03-27T17:55:59.143Z,7.83
2019-03-27T17:58:30.503Z,9.15
2019-03-27T18:01:03.384Z,8.05
2019-03-27T18:03:34.864Z,7.30
2019-03-27T18:06:06.289Z,7.30
2019-03-27T18:08:37.760Z,7.17
2019-03-27T18:11:09.143Z,7.62
2019-03-27T18:13:41.659Z,6.60
2019-03-27T18:16:13.028Z,6.55
2019-03-27T18:18:44.465Z,8.55
2019-03-27T18:21:15.708Z,11.75
2019-03-27T18:23:47.310Z,8.90
2019-03-27T18:26:18.752Z,7.60
2019-03-27T18:28:50.093Z,9.48
2019-03-27T18:31:21.426Z,8.75
2019-03-27T18:34:02.717Z,9.63
2019-03-27T18:36:34.006Z,10.78
2019-03-27T18:39:08.603Z,9.08
2019-03-27T18:41:39.934Z,8.15
2019-03-27T18:44:11.235Z,7.70
2019-03-27T18:46:42.673Z,10.78
2019-03-27T18:49:14.200Z,10.48
2019-03-27T18:51:45.441Z,9.38
2019-03-27T18:54:16.867Z,9.45
2019-03-27T18:56:48.173Z,9.45
2019-03-27T18:59:19.449Z,7.42
2019-03-27T19:01:50.746Z,8.60
2019-03-27T19:04:22.770Z,7.53
2019-03-27T19:06:54.123Z,7.65
2019-03-27T19:09:25.587Z,7.70
2019-03-27T19:11:57.242Z,6.75
2019-03-27T19:14:29.226Z,6.92
2019-03-27T19:17:01.525Z,6.53
2019-03-27T19:19:32.901Z,7.55
2019-03-27T19:22:05.645Z,7.47
2019-03-27T19:24:37.048Z,7.47
2019-03-27T19:27:08.582Z,8.88
2019-03-27T19:29:44.783Z,10.48
2019-03-27T19:32:14.923Z,9.53
2019-03-27T19:34:46.443Z,7.90
2019-03-27T19:37:17.725Z,8.38
2019-03-27T19:39:50.134Z,8.55
2019-03-27T19:42:21.487Z,9.25
2019-03-27T19:44:52.883Z,9.28
2019-03-27T19:47:24.109Z,8.93
2019-03-27T19:49:55.470Z,9.13
2019-03-27T19:52:26.867Z,9.05
2019-03-27T19:54:58.705Z,8.53
2019-03-27T19:57:30.046Z,8.10
2019-03-27T20:00:01.705Z,7.80
2019-03-27T20:02:33.585Z,7.55
2019-03-27T20:05:06.493Z,8.98
2019-03-27T20:07:38.793Z,8.98
2019-03-27T20:10:11.803Z,8.85
2019-03-27T20:12:43.114Z,10.43
2019-03-27T20:15:15.609Z,9.95
2019-03-27T20:17:47.046Z,9.60
2019-03-27T20:20:18.492Z,9.15
2019-03-27T20:22:49.956Z,8.37
2019-03-27T20:25:21.425Z,8.93
2019-03-27T20:27:52.785Z,8.38
2019-03-27T20:30:26.897Z,8.70
2019-03-27T20:32:57.568Z,8.10
2019-03-27T20:35:29.024Z,8.08
2019-03-27T20:38:00.394Z,7.08
2019-03-27T20:40:31.848Z,7.60
2019-03-27T20:43:03.075Z,8.40
2019-03-27T20:45:34.465Z,7.75
2019-03-27T20:48:05.766Z,8.10
2019-03-27T20:50:38.338Z,8.40
2019-03-27T20:53:10.179Z,8.98
2019-03-27T20:55:41.804Z,7.70
2019-03-27T20:58:13.129Z,7.83
2019-03-27T21:00:44.528Z,13.27
2019-03-27T21:03:16.226Z,11.30
2019-03-27T21:05:47.974Z,11.78
2019-03-27T21:08:19.280Z,12.43
2019-03-27T21:10:50.698Z,14.73
2019-03-27T21:13:22.011Z,12.40
2019-03-27T21:15:53.366Z,10.17
2019-03-27T21:18:24.679Z,8.75
2019-03-27T21:20:55.977Z,8.03
2019-03-27T21:23:27.625Z,8.13
2019-03-27T21:25:59.012Z,7.75
2019-03-27T21:28:30.263Z,8.33
2019-03-27T21:31:01.626Z,7.60
2019-03-27T21:33:32.957Z,7.90
2019-03-27T21:36:04.315Z,7.63
2019-03-27T21:38:35.753Z,8.90
2019-03-27T21:41:07.052Z,9.43
2019-03-27T21:43:38.408Z,8.20
2019-03-27T21:46:09.831Z,8.20
2019-03-27T21:48:41.063Z,7.58
2019-03-27T21:51:12.437Z,9.13
2019-03-27T21:53:44.374Z,7.45
2019-03-27T21:56:16.818Z,7.67
2019-03-27T21:58:48.056Z,7.83
2019-03-27T22:01:19.580Z,8.53
2019-03-27T22:03:51.029Z,7.57
2019-03-27T22:06:22.347Z,8.13
2019-03-27T22:08:53.667Z,9.07
2019-03-27T22:11:25.084Z,10.17
2019-03-27T22:13:56.524Z,9.80
2019-03-27T22:16:27.890Z,10.17
2019-03-27T22:18:59.256Z,10.50
2019-03-27T22:21:31.139Z,10.00
2019-03-27T22:24:03.510Z,9.57
2019-03-27T22:26:34.788Z,8.70
2019-03-27T22:29:06.089Z,8.87
2019-03-27T22:31:38.315Z,10.37
2019-03-27T22:34:09.668Z,8.93
2019-03-27T22:36:42.559Z,9.30
2019-03-27T22:39:14.809Z,8.80
2019-03-27T22:41:46.162Z,8.80
2019-03-27T22:44:17.392Z,9.20
2019-03-27T22:46:48.748Z,8.87
2019-03-27T22:49:20.115Z,9.10
2019-03-27T22:51:51.405Z,10.33
2019-03-27T22:54:22.812Z,10.83
2019-03-27T22:56:54.092Z,10.20
2019-03-27T22:59:25.325Z,10.80
2019-03-27T23:01:56.682Z,10.63
2019-03-27T23:04:27.984Z,11.43
2019-03-27T23:06:59.427Z,10.63
2019-03-27T23:09:31.778Z,10.73
2019-03-27T23:12:03.153Z,11.53
2019-03-27T23:14:34.459Z,11.60
2019-03-27T23:17:05.927Z,11.70
2019-03-27T23:19:37.158Z,11.97
2019-03-27T23:22:08.575Z,11.73
2019-03-27T23:24:39.894Z,12.33
2019-03-27T23:27:11.315Z,14.23
2019-03-27T23:29:42.625Z,12.43
2019-03-27T23:32:14.216Z,12.50
2019-03-27T23:34:49.304Z,13.27
2019-03-27T23:37:20.669Z,13.00
2019-03-27T23:39:52.019Z,12.70
2019-03-27T23:42:23.470Z,12.73
2019-03-27T23:44:54.697Z,13.83
2019-03-27T23:47:26.057Z,13.00
2019-03-27T23:49:57.427Z,14.10
2019-03-27T23:52:28.721Z,14.50
2019-03-27T23:55:00.125Z,13.30
2019-03-27T23:57:31.531Z,13.60
